createdAt,value
2022-07-27T00:01:51.172Z,13.25
2022-07-27T00:04:19.105Z,13.18
2022-07-27T00:06:46.382Z,13.32
2022-07-27T00:09:13.117Z,13.11
2022-07-27T00:11:39.793Z,12.95
2022-07-27T00:14:06.335Z,12.91
2022-07-27T00:16:33.035Z,13.06
2022-07-27T00:19:00.231Z,13.26
2022-07-27T00:21:26.808Z,13.09
2022-07-27T00:23:54.444Z,13.09
2022-07-27T00:26:21.200Z,13.15
2022-07-27T00:28:48.482Z,13.20
2022-07-27T00:31:15.143Z,13.06
2022-07-27T00:33:41.713Z,12.80
2022-07-27T00:36:08.551Z,12.70
2022-07-27T00:38:35.120Z,12.88
2022-07-27T00:41:01.654Z,12.59
2022-07-27T00:43:28.133Z,12.52
2022-07-27T00:45:54.577Z,12.64
2022-07-27T00:48:21.317Z,12.50
2022-07-27T00:50:48.359Z,12.53
2022-07-27T00:53:15.235Z,12.57
2022-07-27T00:55:42.275Z,12.33
2022-07-27T00:58:09.014Z,12.60
2022-07-27T01:00:37.417Z,12.54
2022-07-27T01:03:08.731Z,12.80
2022-07-27T01:05:42.520Z,12.77
2022-07-27T01:08:12.506Z,12.39
2022-07-27T01:10:40.711Z,12.61
2022-07-27T01:13:12.291Z,12.76
2022-07-27T01:15:40.702Z,12.59
2022-07-27T01:18:11.804Z,12.66
2022-07-27T01:20:40.386Z,12.51
2022-07-27T01:23:06.857Z,12.58
2022-07-27T01:25:33.367Z,12.36
2022-07-27T01:27:59.819Z,12.33
2022-07-27T01:30:26.462Z,12.59
2022-07-27T01:33:07.959Z,12.74
2022-07-27T01:35:35.283Z,12.60
2022-07-27T01:38:01.965Z,12.78
2022-07-27T01:40:28.483Z,12.67
2022-07-27T01:42:55.225Z,12.70
2022-07-27T01:45:22.347Z,12.58
2022-07-27T01:47:48.949Z,12.73
2022-07-27T01:50:15.533Z,12.83
2022-07-27T01:52:41.995Z,12.68
2022-07-27T01:55:10.400Z,12.84
2022-07-27T01:57:37.154Z,12.57
2022-07-27T02:00:10.976Z,12.81
2022-07-27T02:02:38.292Z,12.93
2022-07-27T02:05:06.070Z,12.62
2022-07-27T02:07:32.543Z,12.71
2022-07-27T02:09:59.001Z,12.59
2022-07-27T02:12:37.658Z,12.50
2022-07-27T02:15:08.221Z,12.34
2022-07-27T02:17:43.571Z,12.27
2022-07-27T02:20:10.283Z,12.29
2022-07-27T02:22:37.513Z,12.24
2022-07-27T02:25:05.137Z,12.32
2022-07-27T02:27:31.851Z,12.30
2022-07-27T02:29:58.349Z,12.22
2022-07-27T02:32:25.207Z,12.21
2022-07-27T02:34:52.138Z,12.09
2022-07-27T02:37:18.661Z,12.20
2022-07-27T02:39:45.119Z,11.91
2022-07-27T02:42:11.641Z,11.67
2022-07-27T02:44:39.857Z,11.87
2022-07-27T02:47:06.425Z,11.55
2022-07-27T02:49:32.917Z,11.71
2022-07-27T02:51:59.396Z,11.85
2022-07-27T02:54:25.932Z,11.58
2022-07-27T02:56:53.480Z,11.39
2022-07-27T02:59:20.822Z,11.48
2022-07-27T03:01:48.717Z,11.35
2022-07-27T03:04:15.869Z,11.41
2022-07-27T03:06:43.272Z,11.62
2022-07-27T03:09:10.414Z,11.75
2022-07-27T03:11:37.233Z,11.84
2022-07-27T03:14:03.865Z,12.03
2022-07-27T03:16:30.397Z,11.96
2022-07-27T03:18:57.877Z,12.04
2022-07-27T03:21:24.977Z,11.82
2022-07-27T03:23:51.528Z,11.91
2022-07-27T03:26:19.175Z,12.14
2022-07-27T03:28:45.801Z,12.06
2022-07-27T03:31:12.399Z,12.04
2022-07-27T03:33:38.941Z,12.13
2022-07-27T03:36:05.862Z,12.13
2022-07-27T03:38:32.336Z,12.07
2022-07-27T03:40:59.886Z,12.11
2022-07-27T03:43:26.346Z,12.17
2022-07-27T03:45:52.875Z,12.34
2022-07-27T03:48:19.368Z,12.34
2022-07-27T03:50:45.813Z,12.43
2022-07-27T03:53:12.274Z,12.59
2022-07-27T03:55:38.809Z,12.64
2022-07-27T03:58:05.296Z,12.52
2022-07-27T04:00:31.829Z,12.60
2022-07-27T04:02:58.407Z,12.82
2022-07-27T04:05:25.616Z,12.93
2022-07-27T04:07:56.094Z,13.18
2022-07-27T04:10:23.774Z,12.85
2022-07-27T04:12:52.234Z,12.76
2022-07-27T04:15:19.089Z,12.71
2022-07-27T04:17:55.653Z,12.60
2022-07-27T04:20:24.393Z,12.79
2022-07-27T04:22:50.967Z,12.87
2022-07-27T04:25:17.471Z,12.74
2022-07-27T04:27:44.013Z,12.75
2022-07-27T04:30:11.375Z,12.90
2022-07-27T04:32:37.958Z,12.99
2022-07-27T04:35:05.424Z,12.95
2022-07-27T04:37:33.164Z,12.79
2022-07-27T04:40:00.342Z,12.66
2022-07-27T04:42:27.093Z,12.73
2022-07-27T04:44:53.558Z,12.80
2022-07-27T04:47:20.067Z,12.77
2022-07-27T04:49:46.574Z,12.52
2022-07-27T04:52:15.966Z,12.61
2022-07-27T04:54:43.112Z,12.70
2022-07-27T04:57:09.761Z,12.77
2022-07-27T04:59:36.392Z,13.18
2022-07-27T05:02:03.627Z,13.69
2022-07-27T05:04:30.457Z,13.65
2022-07-27T05:06:57.754Z,13.62
2022-07-27T05:09:24.288Z,13.54
2022-07-27T05:11:51.669Z,13.57
2022-07-27T05:14:19.784Z,13.55
2022-07-27T05:16:48.854Z,13.65
2022-07-27T05:19:15.688Z,13.55
2022-07-27T05:21:42.842Z,13.54
2022-07-27T05:24:10.082Z,13.61
2022-07-27T05:26:37.472Z,13.91
2022-07-27T05:29:04.164Z,13.75
2022-07-27T05:31:30.675Z,13.76
2022-07-27T05:33:58.499Z,14.05
2022-07-27T05:36:25.485Z,14.15
2022-07-27T05:38:51.982Z,13.86
2022-07-27T05:41:25.642Z,14.08
2022-07-27T05:43:54.492Z,14.13
2022-07-27T05:46:21.991Z,14.37
2022-07-27T05:48:49.114Z,14.43
2022-07-27T05:51:15.687Z,14.43
2022-07-27T05:53:42.157Z,14.33
2022-07-27T05:56:08.614Z,14.69
2022-07-27T05:58:35.371Z,14.61
2022-07-27T06:01:02.048Z,14.41
2022-07-27T06:03:29.025Z,14.30
2022-07-27T06:06:15.544Z,14.44
2022-07-27T06:08:42.097Z,14.38
2022-07-27T06:11:08.638Z,14.64
2022-07-27T06:13:36.611Z,14.73
2022-07-27T06:16:04.254Z,14.55
2022-07-27T06:18:31.078Z,14.81
2022-07-27T06:20:59.176Z,14.61
2022-07-27T06:23:26.085Z,14.69
2022-07-27T06:25:52.531Z,14.76
2022-07-27T06:28:19.296Z,15.11
2022-07-27T06:30:46.672Z,15.31
2022-07-27T06:33:14.243Z,15.09
2022-07-27T06:35:42.039Z,15.01
2022-07-27T06:38:10.171Z,15.26
2022-07-27T06:40:36.684Z,15.48
2022-07-27T06:43:03.609Z,15.31
2022-07-27T06:45:30.160Z,15.73
2022-07-27T06:47:57.581Z,15.14
2022-07-27T06:50:24.207Z,15.19
2022-07-27T06:52:50.988Z,15.12
2022-07-27T06:55:17.779Z,15.56
2022-07-27T06:57:46.176Z,15.26
2022-07-27T07:00:12.793Z,15.64
2022-07-27T07:02:58.552Z,15.75
2022-07-27T07:05:25.922Z,15.77
2022-07-27T07:07:53.340Z,15.77
2022-07-27T07:10:20.453Z,15.32
2022-07-27T07:12:55.301Z,15.44
2022-07-27T07:15:23.856Z,15.41
2022-07-27T07:17:50.497Z,15.26
2022-07-27T07:20:16.988Z,15.32
2022-07-27T07:22:43.528Z,15.75
2022-07-27T07:25:10.272Z,15.83
2022-07-27T07:27:36.767Z,15.79
2022-07-27T07:30:04.743Z,15.48
2022-07-27T07:32:33.516Z,15.64
2022-07-27T07:35:01.434Z,16.12
2022-07-27T07:37:33.416Z,16.20
2022-07-27T07:40:25.308Z,15.99
2022-07-27T07:43:00.038Z,16.22
2022-07-27T07:45:28.140Z,15.82
2022-07-27T07:47:55.521Z,16.15
2022-07-27T07:50:23.487Z,16.47
2022-07-27T07:52:51.764Z,16.38
2022-07-27T07:55:21.390Z,16.39
2022-07-27T07:57:48.268Z,16.61
2022-07-27T08:00:17.979Z,16.41
2022-07-27T08:02:45.654Z,16.05
2022-07-27T08:05:12.835Z,16.22
2022-07-27T08:07:40.170Z,16.30
2022-07-27T08:10:08.314Z,16.36
2022-07-27T08:12:36.800Z,16.45
2022-07-27T08:15:06.094Z,15.92
2022-07-27T08:17:32.694Z,16.04
2022-07-27T08:19:59.298Z,15.71
2022-07-27T08:22:26.061Z,16.18
2022-07-27T08:24:52.825Z,16.22
2022-07-27T08:27:19.387Z,16.73
2022-07-27T08:29:45.899Z,16.20
2022-07-27T08:32:18.487Z,16.88
2022-07-27T08:34:45.165Z,17.03
2022-07-27T08:37:15.415Z,16.76
2022-07-27T08:40:37.449Z,17.17
2022-07-27T08:42:29.632Z,16.59
2022-07-27T08:44:56.257Z,16.51
2022-07-27T08:47:23.368Z,16.46
2022-07-27T08:49:52.948Z,17.26
2022-07-27T08:52:20.275Z,16.74
2022-07-27T08:54:47.504Z,16.20
2022-07-27T08:57:15.194Z,16.56
2022-07-27T08:59:41.666Z,16.95
2022-07-27T09:02:13.501Z,17.20
2022-07-27T09:04:41.199Z,17.20
2022-07-27T09:07:07.914Z,16.86
2022-07-27T09:09:46.201Z,16.85
2022-07-27T09:12:12.821Z,16.93
2022-07-27T09:14:41.616Z,16.76
2022-07-27T09:20:19.953Z,17.08
2022-07-27T09:22:52.637Z,16.68
2022-07-27T09:25:52.559Z,16.49
2022-07-27T09:28:29.172Z,16.85
2022-07-27T09:30:55.678Z,17.56
2022-07-27T09:33:22.206Z,16.91
2022-07-27T09:35:58.240Z,17.45
2022-07-27T09:38:25.080Z,17.42
2022-07-27T09:41:02.701Z,16.87
2022-07-27T09:46:16.423Z,17.38
2022-07-27T09:48:43.239Z,16.91
2022-07-27T09:54:05.801Z,17.03
2022-07-27T09:56:32.878Z,17.03
2022-07-27T09:59:02.116Z,17.05
2022-07-27T10:01:35.287Z,17.58
2022-07-27T10:04:05.091Z,17.71
2022-07-27T10:06:47.742Z,17.01
2022-07-27T10:09:19.999Z,16.99
2022-07-27T10:11:49.409Z,16.67
2022-07-27T10:14:16.662Z,16.94
2022-07-27T10:16:47.466Z,17.00
2022-07-27T10:19:37.052Z,17.75
2022-07-27T10:22:03.682Z,17.65
2022-07-27T10:24:34.749Z,17.60
2022-07-27T10:27:30.418Z,17.91
2022-07-27T10:29:57.598Z,17.77
2022-07-27T10:32:31.296Z,17.84
2022-07-27T10:34:58.758Z,17.83
2022-07-27T10:37:33.137Z,17.20
2022-07-27T10:40:36.497Z,17.15
2022-07-27T10:43:29.498Z,17.35
2022-07-27T10:46:01.583Z,17.89
2022-07-27T10:48:45.873Z,17.92
2022-07-27T10:51:16.582Z,17.89
2022-07-27T10:54:12.658Z,17.90
2022-07-27T10:56:47.015Z,18.52
2022-07-27T10:59:13.864Z,18.24
2022-07-27T11:01:59.121Z,18.96
2022-07-27T11:04:26.144Z,19.16
2022-07-27T11:10:07.639Z,17.73
2022-07-27T11:12:36.621Z,17.51
2022-07-27T11:15:04.047Z,18.19
2022-07-27T11:20:23.065Z,18.87
2022-07-27T11:25:36.187Z,18.81
2022-07-27T11:28:07.516Z,20.54
2022-07-27T11:30:34.239Z,18.86
2022-07-27T11:33:04.817Z,18.81
2022-07-27T11:35:31.543Z,18.80
2022-07-27T11:38:03.169Z,18.68
2022-07-27T11:41:12.690Z,19.89
2022-07-27T11:43:45.688Z,19.65
2022-07-27T11:46:27.786Z,19.74
2022-07-27T11:49:12.853Z,19.22
2022-07-27T11:51:42.395Z,18.79
2022-07-27T11:54:23.357Z,19.39
2022-07-27T11:56:53.370Z,19.55
2022-07-27T11:59:30.490Z,20.01
2022-07-27T12:02:05.875Z,20.98
2022-07-27T12:04:38.124Z,21.75
2022-07-27T12:07:15.768Z,21.64
2022-07-27T12:09:49.842Z,22.11
2022-07-27T12:12:27.112Z,21.99
2022-07-27T12:14:57.155Z,20.42
2022-07-27T12:17:34.250Z,20.53
2022-07-27T12:20:09.979Z,20.17
2022-07-27T12:22:49.095Z,19.40
2022-07-27T12:25:18.518Z,20.97
2022-07-27T12:27:57.207Z,20.66
2022-07-27T12:30:36.061Z,19.21
2022-07-27T12:33:05.025Z,20.52
2022-07-27T12:35:46.493Z,20.79
2022-07-27T12:38:13.719Z,19.64
2022-07-27T12:41:00.532Z,19.09
2022-07-27T12:43:27.640Z,18.01
2022-07-27T12:45:55.791Z,18.54
2022-07-27T12:48:37.561Z,18.38
2022-07-27T12:51:06.883Z,19.20
2022-07-27T12:53:34.861Z,18.95
2022-07-27T12:56:06.512Z,19.21
2022-07-27T12:58:33.453Z,18.54
2022-07-27T13:01:00.105Z,18.08
2022-07-27T13:03:26.773Z,18.08
2022-07-27T13:05:53.396Z,17.99
2022-07-27T13:08:20.069Z,19.06
2022-07-27T13:10:48.465Z,20.17
2022-07-27T13:13:15.268Z,19.55
2022-07-27T13:15:41.945Z,19.10
2022-07-27T13:18:08.943Z,18.39
2022-07-27T13:20:36.977Z,18.94
2022-07-27T13:23:07.299Z,19.02
2022-07-27T13:25:33.875Z,19.07
2022-07-27T13:28:00.571Z,18.76
2022-07-27T13:30:27.110Z,18.14
2022-07-27T13:32:53.933Z,17.75
2022-07-27T13:35:20.552Z,18.47
2022-07-27T13:37:47.139Z,18.27
2022-07-27T13:40:14.057Z,19.07
2022-07-27T13:42:40.704Z,20.98
2022-07-27T13:45:10.874Z,20.87
2022-07-27T13:47:40.093Z,19.77
2022-07-27T13:50:17.796Z,18.58
2022-07-27T13:52:47.335Z,17.83
2022-07-27T13:55:17.544Z,17.44
2022-07-27T13:57:44.893Z,17.15
2022-07-27T14:00:15.555Z,17.76
2022-07-27T14:02:42.920Z,17.72
2022-07-27T14:05:13.118Z,17.47
2022-07-27T14:07:40.708Z,16.62
2022-07-27T14:10:26.631Z,16.92
2022-07-27T14:12:58.832Z,17.50
2022-07-27T14:15:25.753Z,17.07
2022-07-27T14:17:52.271Z,17.39
2022-07-27T14:20:21.893Z,17.80
2022-07-27T14:22:48.418Z,18.18
2022-07-27T14:25:15.194Z,18.31
2022-07-27T14:27:41.735Z,18.31
2022-07-27T14:30:09.535Z,17.59
2022-07-27T14:32:36.333Z,17.73
2022-07-27T14:35:03.892Z,18.22
2022-07-27T14:37:30.481Z,18.37
2022-07-27T14:39:56.952Z,17.81
2022-07-27T14:42:24.990Z,17.31
2022-07-27T14:44:54.416Z,16.88
2022-07-27T14:47:20.949Z,17.72
2022-07-27T14:49:49.602Z,17.89
2022-07-27T14:52:18.714Z,18.59
2022-07-27T14:54:47.119Z,18.70
2022-07-27T14:57:14.377Z,18.02
2022-07-27T14:59:44.587Z,17.51
2022-07-27T15:02:14.187Z,17.21
2022-07-27T15:04:41.029Z,17.23
2022-07-27T15:07:07.793Z,17.30
2022-07-27T15:09:34.321Z,17.37
2022-07-27T15:12:04.062Z,17.46
2022-07-27T15:14:38.789Z,17.53
2022-07-27T15:17:06.454Z,17.34
2022-07-27T15:19:33.031Z,16.86
2022-07-27T15:21:59.676Z,17.09
2022-07-27T15:24:26.925Z,17.38
2022-07-27T15:26:53.417Z,17.42
2022-07-27T15:29:19.886Z,17.03
2022-07-27T15:31:46.816Z,17.07
2022-07-27T15:34:14.668Z,17.22
2022-07-27T15:36:47.218Z,16.85
2022-07-27T15:39:21.677Z,17.72
2022-07-27T15:41:48.264Z,18.07
2022-07-27T15:44:22.599Z,18.32
2022-07-27T15:46:49.421Z,19.47
2022-07-27T15:49:16.482Z,19.03
2022-07-27T15:51:43.665Z,17.67
2022-07-27T15:54:10.216Z,16.98
2022-07-27T15:56:40.599Z,16.72
2022-07-27T15:59:07.066Z,16.63
2022-07-27T16:01:35.869Z,16.93
2022-07-27T16:04:03.476Z,18.80
2022-07-27T16:06:34.011Z,17.85
2022-07-27T16:09:04.337Z,16.99
2022-07-27T16:11:31.033Z,17.47
2022-07-27T16:13:57.540Z,17.04
2022-07-27T16:16:30.288Z,17.22
2022-07-27T16:19:01.014Z,17.13
2022-07-27T16:21:54.018Z,16.71
2022-07-27T16:24:22.390Z,16.54
2022-07-27T16:26:48.940Z,16.50
2022-07-27T16:29:15.930Z,16.33
2022-07-27T16:31:49.360Z,16.40
2022-07-27T16:34:15.846Z,16.69
2022-07-27T16:36:42.319Z,17.11
2022-07-27T16:39:08.857Z,17.68
2022-07-27T16:41:35.338Z,17.40
2022-07-27T16:44:01.856Z,17.20
2022-07-27T16:46:28.385Z,16.70
2022-07-27T16:48:54.965Z,16.71
2022-07-27T16:51:21.587Z,16.72
2022-07-27T16:53:48.351Z,16.93
2022-07-27T16:56:15.143Z,16.78
2022-07-27T16:58:41.788Z,16.71
2022-07-27T17:01:09.128Z,16.54
2022-07-27T17:03:36.549Z,16.55
2022-07-27T17:06:06.472Z,16.08
2022-07-27T17:08:34.392Z,16.01
2022-07-27T17:11:02.639Z,16.21
2022-07-27T17:13:33.757Z,16.37
2022-07-27T17:16:03.085Z,16.20
2022-07-27T17:18:29.801Z,16.13
2022-07-27T17:21:02.910Z,16.14
2022-07-27T17:23:33.489Z,16.11
2022-07-27T17:25:59.938Z,16.12
2022-07-27T17:28:26.636Z,16.64
2022-07-27T17:30:53.198Z,16.66
2022-07-27T17:33:19.697Z,16.93
2022-07-27T17:35:46.168Z,17.06
2022-07-27T17:38:14.026Z,16.59
2022-07-27T17:40:40.620Z,16.24
2022-07-27T17:43:07.088Z,16.29
2022-07-27T17:45:33.896Z,16.56
2022-07-27T17:48:00.495Z,16.10
2022-07-27T17:50:27.298Z,16.05
2022-07-27T17:52:56.392Z,16.02
2022-07-27T17:55:22.988Z,15.90
2022-07-27T17:57:49.933Z,15.94
2022-07-27T18:00:16.861Z,15.66
2022-07-27T18:02:43.352Z,15.77
2022-07-27T18:05:10.146Z,15.66
2022-07-27T18:07:39.235Z,15.41
2022-07-27T18:10:08.199Z,15.61
2022-07-27T18:12:35.497Z,15.76
2022-07-27T18:15:20.817Z,15.53
2022-07-27T18:17:47.608Z,15.49
2022-07-27T18:20:14.345Z,15.59
2022-07-27T18:22:40.943Z,15.68
2022-07-27T18:25:08.501Z,15.62
2022-07-27T18:27:35.501Z,15.59
2022-07-27T18:30:04.941Z,15.50
2022-07-27T18:32:33.540Z,15.47
2022-07-27T18:35:01.655Z,15.44
2022-07-27T18:37:28.372Z,15.61
2022-07-27T18:39:54.988Z,15.53
2022-07-27T18:42:21.534Z,15.17
2022-07-27T18:44:48.275Z,14.96
2022-07-27T18:47:15.719Z,15.07
2022-07-27T18:49:42.695Z,15.12
2022-07-27T18:52:09.240Z,14.98
2022-07-27T18:54:35.781Z,14.92
2022-07-27T18:57:02.584Z,14.85
2022-07-27T18:59:30.044Z,14.50
2022-07-27T19:01:56.966Z,14.68
2022-07-27T19:04:24.742Z,14.51
2022-07-27T19:06:51.666Z,14.75
2022-07-27T19:09:18.416Z,14.52
2022-07-27T19:11:45.283Z,14.44
2022-07-27T19:14:11.926Z,14.39
2022-07-27T19:16:38.525Z,14.73
2022-07-27T19:19:07.743Z,14.83
2022-07-27T19:21:38.650Z,14.61
2022-07-27T19:24:05.369Z,14.81
2022-07-27T19:26:33.649Z,14.72
2022-07-27T19:29:00.328Z,14.62
2022-07-27T19:31:28.106Z,14.58
2022-07-27T19:33:56.188Z,14.58
2022-07-27T19:36:23.323Z,14.51
2022-07-27T19:38:50.559Z,14.54
2022-07-27T19:41:17.304Z,14.51
2022-07-27T19:43:44.351Z,14.59
2022-07-27T19:46:11.104Z,14.78
2022-07-27T19:48:37.959Z,14.53
2022-07-27T19:51:06.990Z,14.38
2022-07-27T19:53:37.760Z,14.25
2022-07-27T19:56:04.754Z,14.35
2022-07-27T19:58:31.945Z,14.37
2022-07-27T20:00:58.729Z,14.06
2022-07-27T20:03:25.686Z,14.09
2022-07-27T20:05:52.257Z,14.18
2022-07-27T20:08:19.236Z,14.23
2022-07-27T20:10:47.248Z,14.20
2022-07-27T20:13:14.495Z,14.08
2022-07-27T20:15:41.341Z,14.00
2022-07-27T20:18:08.040Z,14.05
2022-07-27T20:20:35.410Z,13.94
2022-07-27T20:23:01.950Z,14.15
2022-07-27T20:25:28.456Z,14.09
2022-07-27T20:27:55.019Z,14.04
2022-07-27T20:30:21.672Z,13.89
2022-07-27T20:32:49.188Z,13.95
2022-07-27T20:35:16.552Z,14.12
2022-07-27T20:37:45.146Z,14.11
2022-07-27T20:40:12.722Z,13.98
2022-07-27T20:42:41.149Z,14.06
2022-07-27T20:45:11.004Z,14.00
2022-07-27T20:47:38.446Z,14.09
2022-07-27T20:50:08.120Z,14.09
2022-07-27T20:52:34.989Z,13.97
2022-07-27T20:55:01.560Z,14.13
2022-07-27T20:57:28.189Z,14.11
2022-07-27T20:59:54.688Z,13.84
2022-07-27T21:02:21.272Z,13.82
2022-07-27T21:04:47.803Z,13.90
2022-07-27T21:07:14.371Z,14.32
2022-07-27T21:09:41.021Z,14.24
2022-07-27T21:12:08.248Z,14.09
2022-07-27T21:14:34.777Z,14.05
2022-07-27T21:17:01.338Z,13.77
2022-07-27T21:19:28.081Z,14.02
2022-07-27T21:21:54.755Z,14.00
2022-07-27T21:24:22.782Z,13.91
2022-07-27T21:26:51.164Z,14.06
2022-07-27T21:29:19.847Z,14.15
2022-07-27T21:31:49.009Z,14.09
2022-07-27T21:34:18.374Z,14.08
2022-07-27T21:36:45.969Z,13.86
2022-07-27T21:39:12.859Z,13.88
2022-07-27T21:41:39.812Z,13.82
2022-07-27T21:44:06.339Z,13.63
2022-07-27T21:46:32.903Z,13.82
2022-07-27T21:48:59.534Z,14.03
2022-07-27T21:51:26.135Z,13.60
2022-07-27T21:53:52.687Z,13.65
2022-07-27T21:56:19.541Z,13.81
2022-07-27T21:58:46.336Z,14.08
2022-07-27T22:01:14.076Z,14.07
2022-07-27T22:03:41.586Z,14.28
2022-07-27T22:06:09.796Z,13.88
2022-07-27T22:08:36.534Z,14.08
2022-07-27T22:11:03.771Z,13.84
2022-07-27T22:13:30.521Z,13.63
2022-07-27T22:15:57.083Z,13.80
2022-07-27T22:18:23.681Z,13.59
2022-07-27T22:20:50.174Z,13.41
2022-07-27T22:23:17.042Z,13.25
2022-07-27T22:25:43.905Z,13.13
2022-07-27T22:28:10.405Z,13.28
2022-07-27T22:30:36.921Z,13.51
2022-07-27T22:33:03.501Z,13.34
2022-07-27T22:35:30.239Z,13.03
2022-07-27T22:37:56.896Z,13.12
2022-07-27T22:40:24.448Z,13.10
2022-07-27T22:42:50.966Z,12.92
2022-07-27T22:45:17.688Z,12.86
2022-07-27T22:47:44.313Z,12.86
2022-07-27T22:50:17.833Z,12.87
2022-07-27T22:52:44.809Z,12.96
2022-07-27T22:55:11.297Z,12.90
2022-07-27T22:57:37.827Z,12.84
2022-07-27T23:00:06.501Z,13.01
2022-07-27T23:02:34.225Z,12.95
2022-07-27T23:05:00.799Z,12.97
2022-07-27T23:07:27.569Z,12.83
2022-07-27T23:09:54.096Z,12.81
2022-07-27T23:12:23.869Z,12.87
2022-07-27T23:14:50.383Z,12.78
2022-07-27T23:17:16.907Z,12.72
2022-07-27T23:19:43.426Z,12.61
2022-07-27T23:22:11.481Z,12.53
2022-07-27T23:24:38.228Z,12.55
2022-07-27T23:27:07.574Z,12.50
2022-07-27T23:29:34.072Z,12.34
2022-07-27T23:32:02.524Z,12.47
2022-07-27T23:34:29.180Z,12.55
2022-07-27T23:36:56.212Z,12.36
2022-07-27T23:39:22.923Z,12.46
2022-07-27T23:41:50.081Z,12.59
2022-07-27T23:44:17.362Z,12.51
2022-07-27T23:46:44.091Z,12.60
2022-07-27T23:49:10.876Z,12.88
2022-07-27T23:51:37.465Z,12.59
2022-07-27T23:54:04.115Z,12.60
2022-07-27T23:56:30.628Z,12.76
2022-07-27T23:58:57.442Z,12.87
